createdAt,value
2019-04-07T00:00:09.507Z,99.90
2019-04-07T00:02:38.581Z,99.90
2019-04-07T00:05:13.624Z,99.90
2019-04-07T00:07:38.327Z,99.90
2019-04-07T00:10:10.152Z,99.90
2019-04-07T00:12:38.937Z,99.90
2019-04-07T00:15:08.198Z,99.90
2019-04-07T00:17:37.608Z,99.90
2019-04-07T00:20:07.321Z,99.90
2019-04-07T00:22:36.758Z,99.90
2019-04-07T00:25:06.078Z,99.90
2019-04-07T00:27:34.789Z,99.90
2019-04-07T00:30:04.082Z,99.90
2019-04-07T00:32:32.825Z,99.90
2019-04-07T00:35:01.595Z,99.90
2019-04-07T00:37:31.038Z,99.90
2019-04-07T00:39:59.938Z,99.90
2019-04-07T00:42:29.183Z,99.90
2019-04-07T00:44:58.636Z,99.90
2019-04-07T00:47:27.529Z,99.90
2019-04-07T00:49:57.602Z,99.90
2019-04-07T00:52:26.439Z,99.90
2019-04-07T00:54:55.564Z,99.90
2019-04-07T00:57:25.360Z,99.90
2019-04-07T00:59:54.341Z,99.90
2019-04-07T01:02:23.254Z,99.90
2019-04-07T01:04:51.987Z,99.90
2019-04-07T01:07:20.802Z,99.90
2019-04-07T01:09:49.536Z,99.90
2019-04-07T01:12:18.303Z,99.90
2019-04-07T01:14:47.064Z,99.90
2019-04-07T01:17:16.414Z,99.90
2019-04-07T01:19:45.466Z,99.90
2019-04-07T01:22:14.487Z,99.90
2019-04-07T01:24:43.255Z,99.90
2019-04-07T01:27:12.531Z,99.90
2019-04-07T01:29:41.898Z,99.90
2019-04-07T01:32:11.282Z,99.90
2019-04-07T01:34:40.441Z,99.90
2019-04-07T01:37:09.788Z,99.90
2019-04-07T01:39:39.439Z,99.90
2019-04-07T01:42:10.096Z,99.90
2019-04-07T01:44:40.931Z,99.90
2019-04-07T01:47:20.964Z,99.90
2019-04-07T01:49:55.636Z,99.90
2019-04-07T01:52:28.553Z,99.90
2019-04-07T01:54:59.027Z,99.90
2019-04-07T01:57:38.682Z,99.90
2019-04-07T02:00:25.868Z,99.90
2019-04-07T02:02:59.975Z,99.90
2019-04-07T02:05:36.530Z,99.90
2019-04-07T02:08:07.766Z,99.90
2019-04-07T02:10:44.581Z,99.90
2019-04-07T02:13:33.895Z,99.90
2019-04-07T02:16:06.795Z,99.90
2019-04-07T02:18:52.269Z,99.90
2019-04-07T02:21:25.598Z,99.90
2019-04-07T02:24:11.466Z,99.90
2019-04-07T02:26:58.635Z,99.90
2019-04-07T02:29:32.445Z,99.90
2019-04-07T02:32:21.500Z,99.90
2019-04-07T02:35:08.885Z,99.90
2019-04-07T02:37:44.756Z,99.90
2019-04-07T02:40:31.720Z,99.90
2019-04-07T02:43:03.021Z,99.90
2019-04-07T02:45:34.596Z,99.90
2019-04-07T02:48:14.480Z,99.90
2019-04-07T02:50:47.875Z,99.90
2019-04-07T02:53:30.878Z,99.90
2019-04-07T02:56:08.081Z,99.90
2019-04-07T02:58:54.956Z,99.90
2019-04-07T03:01:26.485Z,99.90
2019-04-07T03:03:57.801Z,99.90
2019-04-07T03:06:49.741Z,99.90
2019-04-07T03:09:28.923Z,99.90
2019-04-07T03:12:03.987Z,99.90
2019-04-07T03:14:34.449Z,99.90
2019-04-07T03:17:05.572Z,99.90
2019-04-07T03:19:37.284Z,99.90
2019-04-07T03:22:13.373Z,99.90
2019-04-07T03:24:46.843Z,99.90
2019-04-07T03:27:24.002Z,99.90
2019-04-07T03:29:55.366Z,99.90
2019-04-07T03:32:33.786Z,99.90
2019-04-07T03:35:15.033Z,99.90
2019-04-07T03:37:57.232Z,99.90
2019-04-07T03:40:43.974Z,99.90
2019-04-07T03:43:17.686Z,99.90
2019-04-07T03:45:48.328Z,99.90
2019-04-07T03:48:33.769Z,99.90
2019-04-07T03:51:13.074Z,99.90
2019-04-07T03:53:59.418Z,99.90
2019-04-07T03:56:46.370Z,99.90
2019-04-07T03:59:33.348Z,99.90
2019-04-07T04:02:20.478Z,99.90
2019-04-07T04:04:57.562Z,99.90
2019-04-07T04:07:40.493Z,99.90
2019-04-07T04:10:11.444Z,99.90
2019-04-07T04:12:45.625Z,99.90
2019-04-07T04:15:18.707Z,99.90
2019-04-07T04:17:48.123Z,99.90
2019-04-07T04:20:17.127Z,99.90
2019-04-07T04:22:46.487Z,99.90
2019-04-07T04:25:15.463Z,99.90
2019-04-07T04:27:44.340Z,99.90
2019-04-07T04:30:13.461Z,99.90
2019-04-07T04:32:42.186Z,99.90
2019-04-07T04:35:11.161Z,99.90
2019-04-07T04:37:47.595Z,99.90
2019-04-07T04:40:10.803Z,99.90
2019-04-07T04:42:39.762Z,99.90
2019-04-07T04:45:09.025Z,99.90
2019-04-07T04:47:39.169Z,99.90
2019-04-07T04:50:09.700Z,99.90
2019-04-07T04:52:38.816Z,99.90
2019-04-07T04:55:07.842Z,99.90
2019-04-07T04:57:36.729Z,99.90
2019-04-07T05:00:08.827Z,99.90
2019-04-07T05:02:38.224Z,99.90
2019-04-07T05:05:09.453Z,99.90
2019-04-07T05:07:50.396Z,99.90
2019-04-07T05:10:10.059Z,99.90
2019-04-07T05:12:39.127Z,99.90
2019-04-07T05:15:08.725Z,99.90
2019-04-07T05:17:38.065Z,99.90
2019-04-07T05:20:08.054Z,99.90
2019-04-07T05:22:36.914Z,99.90
2019-04-07T05:25:07.128Z,99.90
2019-04-07T05:27:41.793Z,99.90
2019-04-07T05:30:12.351Z,99.90
2019-04-07T05:32:41.744Z,99.90
2019-04-07T05:35:10.682Z,99.90
2019-04-07T05:37:39.394Z,99.90
2019-04-07T05:40:09.092Z,99.90
2019-04-07T05:42:38.014Z,99.90
2019-04-07T05:45:07.450Z,99.90
2019-04-07T05:47:36.538Z,99.90
2019-04-07T05:50:06.969Z,99.90
2019-04-07T05:52:39.398Z,99.90
2019-04-07T05:55:07.726Z,99.90
2019-04-07T05:57:36.586Z,99.90
2019-04-07T06:00:09.214Z,99.90
2019-04-07T06:02:38.936Z,99.90
2019-04-07T06:05:07.917Z,99.90
2019-04-07T06:07:37.102Z,99.90
2019-04-07T06:10:07.986Z,99.90
2019-04-07T06:12:39.318Z,99.90
2019-04-07T06:15:07.564Z,99.90
2019-04-07T06:17:36.754Z,99.90
2019-04-07T06:20:12.139Z,99.90
2019-04-07T06:22:38.033Z,99.90
2019-04-07T06:25:09.505Z,99.90
2019-04-07T06:27:38.675Z,99.90
2019-04-07T06:30:10.846Z,99.90
2019-04-07T06:32:40.538Z,99.90
2019-04-07T06:35:12.858Z,99.90
2019-04-07T06:37:40.705Z,99.90
2019-04-07T06:40:10.000Z,98.00
2019-04-07T06:42:39.032Z,96.60
2019-04-07T06:45:11.861Z,92.80
2019-04-07T06:47:55.202Z,91.60
2019-04-07T06:50:25.877Z,89.70
2019-04-07T06:53:17.889Z,84.70
2019-04-07T06:56:01.340Z,80.00
2019-04-07T06:58:41.609Z,71.10
2019-04-07T07:01:11.100Z,66.20
2019-04-07T07:03:51.381Z,64.00
2019-04-07T07:06:25.176Z,61.00
2019-04-07T07:09:13.778Z,59.10
2019-04-07T07:11:56.140Z,57.60
2019-04-07T07:14:44.920Z,55.60
2019-04-07T07:17:17.001Z,53.40
2019-04-07T07:19:49.835Z,52.10
2019-04-07T07:22:26.964Z,51.80
2019-04-07T07:24:58.374Z,50.40
2019-04-07T07:27:26.220Z,50.10
2019-04-07T07:29:55.521Z,50.10
2019-04-07T07:32:25.010Z,48.60
2019-04-07T07:34:54.179Z,47.70
2019-04-07T07:37:25.297Z,47.00
2019-04-07T07:39:54.292Z,46.70
2019-04-07T07:42:24.435Z,45.40
2019-04-07T07:44:53.579Z,43.90
2019-04-07T07:47:23.014Z,43.70
2019-04-07T07:49:52.028Z,41.30
2019-04-07T07:52:21.838Z,39.80
2019-04-07T07:54:50.939Z,39.20
2019-04-07T07:57:23.422Z,39.10
2019-04-07T07:59:50.953Z,38.90
2019-04-07T08:02:20.752Z,38.30
2019-04-07T08:04:50.159Z,37.50
2019-04-07T08:07:19.377Z,37.90
2019-04-07T08:09:48.293Z,36.80
2019-04-07T08:12:17.364Z,37.20
2019-04-07T08:14:50.265Z,36.20
2019-04-07T08:17:17.305Z,36.00
2019-04-07T08:19:46.649Z,34.50
2019-04-07T08:22:26.641Z,33.70
2019-04-07T08:24:49.587Z,33.70
2019-04-07T08:27:16.385Z,33.10
2019-04-07T08:29:46.328Z,32.50
2019-04-07T08:32:15.149Z,32.90
2019-04-07T08:34:44.758Z,32.70
2019-04-07T08:37:15.174Z,32.40
2019-04-07T08:39:44.396Z,31.80
2019-04-07T08:42:17.503Z,32.10
2019-04-07T08:44:44.116Z,31.80
2019-04-07T08:47:18.862Z,31.20
2019-04-07T08:49:43.604Z,31.50
2019-04-07T08:52:12.800Z,30.10
2019-04-07T08:54:42.160Z,31.30
2019-04-07T08:57:11.031Z,31.30
2019-04-07T08:59:42.460Z,30.80
2019-04-07T09:02:10.162Z,31.90
2019-04-07T09:04:38.944Z,30.70
2019-04-07T09:07:08.016Z,30.50
2019-04-07T09:09:40.400Z,31.10
2019-04-07T09:12:08.129Z,31.60
2019-04-07T09:14:39.336Z,30.80
2019-04-07T09:17:09.447Z,30.80
2019-04-07T09:19:49.556Z,30.70
2019-04-07T09:22:35.200Z,30.40
2019-04-07T09:25:19.367Z,31.00
2019-04-07T09:27:52.681Z,30.30
2019-04-07T09:30:23.652Z,30.30
2019-04-07T09:32:54.588Z,29.60
2019-04-07T09:35:34.150Z,29.60
2019-04-07T09:38:14.359Z,29.50
2019-04-07T09:40:53.545Z,29.20
2019-04-07T09:43:40.392Z,29.50
2019-04-07T09:46:13.728Z,29.50
2019-04-07T09:49:02.391Z,31.40
2019-04-07T09:51:41.402Z,32.70
2019-04-07T09:54:19.196Z,34.10
2019-04-07T09:56:51.954Z,35.30
2019-04-07T09:59:22.891Z,36.20
2019-04-07T10:01:59.497Z,37.80
2019-04-07T10:04:31.100Z,41.20
2019-04-07T10:07:01.550Z,42.60
2019-04-07T10:09:41.286Z,43.20
2019-04-07T10:12:11.772Z,44.50
2019-04-07T10:14:58.295Z,45.60
2019-04-07T10:17:38.430Z,46.80
2019-04-07T10:20:14.884Z,48.80
2019-04-07T10:23:01.864Z,48.60
2019-04-07T10:25:44.561Z,49.80
2019-04-07T10:28:15.013Z,50.90
2019-04-07T10:30:45.972Z,51.70
2019-04-07T10:33:33.568Z,52.50
2019-04-07T10:36:20.554Z,53.90
2019-04-07T10:38:51.246Z,54.20
2019-04-07T10:41:21.761Z,51.70
2019-04-07T10:43:52.581Z,51.70
2019-04-07T10:46:38.565Z,52.20
2019-04-07T10:49:25.223Z,50.80
2019-04-07T10:52:02.922Z,50.30
2019-04-07T10:54:42.680Z,49.80
2019-04-07T10:57:15.758Z,50.00
2019-04-07T10:59:49.283Z,50.40
2019-04-07T11:02:35.060Z,50.90
2019-04-07T11:05:22.860Z,51.80
2019-04-07T11:08:10.565Z,52.20
2019-04-07T11:10:56.420Z,51.70
2019-04-07T11:13:42.284Z,51.30
2019-04-07T11:16:18.737Z,51.10
2019-04-07T11:19:07.801Z,50.00
2019-04-07T11:21:56.643Z,50.60
2019-04-07T11:24:43.325Z,51.10
2019-04-07T11:27:31.112Z,50.70
2019-04-07T11:30:05.115Z,50.30
2019-04-07T11:32:35.922Z,49.50
2019-04-07T11:35:17.450Z,49.70
2019-04-07T11:37:48.479Z,50.70
2019-04-07T11:40:22.655Z,51.10
2019-04-07T11:42:55.922Z,51.80
2019-04-07T11:45:26.953Z,52.00
2019-04-07T11:47:58.072Z,52.70
2019-04-07T11:50:28.649Z,53.40
2019-04-07T11:53:01.984Z,54.30
2019-04-07T11:55:35.326Z,53.80
2019-04-07T11:58:17.731Z,53.80
2019-04-07T12:00:55.645Z,53.30
2019-04-07T12:03:41.792Z,53.40
2019-04-07T12:06:19.177Z,54.30
2019-04-07T12:09:02.232Z,53.80
2019-04-07T12:11:49.371Z,54.40
2019-04-07T12:14:25.917Z,53.50
2019-04-07T12:16:58.473Z,55.20
2019-04-07T12:19:32.076Z,55.00
2019-04-07T12:22:12.285Z,54.30
2019-04-07T12:24:40.209Z,53.90
2019-04-07T12:27:27.036Z,53.80
2019-04-07T12:30:10.080Z,54.20
2019-04-07T12:32:43.493Z,56.50
2019-04-07T12:35:15.589Z,55.90
2019-04-07T12:37:49.214Z,53.60
2019-04-07T12:40:32.295Z,51.50
2019-04-07T12:43:12.274Z,50.20
2019-04-07T12:45:56.819Z,53.60
2019-04-07T12:48:36.296Z,50.70
2019-04-07T12:51:09.791Z,49.00
2019-04-07T12:53:43.364Z,49.70
2019-04-07T12:56:13.842Z,51.00
2019-04-07T12:58:50.599Z,52.10
2019-04-07T13:01:33.709Z,52.30
2019-04-07T13:04:23.279Z,53.10
2019-04-07T13:07:03.496Z,51.80
2019-04-07T13:09:37.103Z,52.40
2019-04-07T13:12:07.694Z,53.50
2019-04-07T13:14:40.029Z,52.50
2019-04-07T13:17:34.231Z,52.80
2019-04-07T13:20:06.297Z,52.00
2019-04-07T13:22:53.182Z,52.20
2019-04-07T13:25:24.350Z,53.20
2019-04-07T13:28:01.438Z,55.60
2019-04-07T13:30:48.828Z,54.50
2019-04-07T13:33:26.421Z,53.50
2019-04-07T13:36:10.379Z,53.50
2019-04-07T13:38:41.475Z,54.30
2019-04-07T13:41:38.658Z,57.10
2019-04-07T13:44:07.149Z,54.00
2019-04-07T13:46:51.605Z,53.50
2019-04-07T13:49:38.067Z,54.20
2019-04-07T13:52:11.868Z,53.70
2019-04-07T13:54:51.348Z,52.80
2019-04-07T13:57:27.627Z,53.40
2019-04-07T14:00:15.965Z,53.70
2019-04-07T14:02:46.341Z,52.10
2019-04-07T14:05:16.886Z,53.60
2019-04-07T14:08:00.097Z,53.10
2019-04-07T14:10:36.964Z,52.60
2019-04-07T14:13:21.010Z,54.00
2019-04-07T14:16:04.014Z,53.20
2019-04-07T14:18:49.035Z,53.40
2019-04-07T14:21:18.638Z,54.20
2019-04-07T14:24:08.189Z,53.00
2019-04-07T14:26:42.400Z,52.30
2019-04-07T14:29:29.202Z,52.20
2019-04-07T14:32:00.856Z,51.30
2019-04-07T14:34:31.612Z,52.50
2019-04-07T14:37:09.720Z,51.40
2019-04-07T14:39:40.398Z,54.10
2019-04-07T14:42:17.651Z,55.80
2019-04-07T14:44:54.523Z,55.30
2019-04-07T14:47:43.601Z,54.20
2019-04-07T14:50:17.279Z,53.90
2019-04-07T14:52:48.287Z,53.70
2019-04-07T14:55:19.495Z,54.10
2019-04-07T14:57:50.240Z,54.40
2019-04-07T15:00:38.621Z,54.40
2019-04-07T15:03:08.151Z,54.10
2019-04-07T15:05:38.814Z,55.20
2019-04-07T15:08:12.349Z,55.40
2019-04-07T15:10:46.251Z,54.60
2019-04-07T15:13:23.856Z,52.90
2019-04-07T15:15:51.435Z,51.60
2019-04-07T15:18:21.456Z,51.70
2019-04-07T15:20:50.570Z,52.70
2019-04-07T15:23:19.835Z,52.20
2019-04-07T15:25:49.447Z,52.80
2019-04-07T15:28:19.460Z,53.60
2019-04-07T15:30:49.493Z,52.50
2019-04-07T15:33:18.888Z,52.70
2019-04-07T15:35:49.444Z,54.50
2019-04-07T15:38:20.423Z,56.40
2019-04-07T15:40:49.337Z,56.00
2019-04-07T15:43:19.082Z,56.50
2019-04-07T15:45:48.724Z,58.50
2019-04-07T15:48:17.565Z,57.70
2019-04-07T15:50:46.356Z,57.50
2019-04-07T15:53:15.651Z,58.10
2019-04-07T15:55:50.953Z,59.30
2019-04-07T15:58:16.964Z,58.80
2019-04-07T16:00:46.191Z,60.80
2019-04-07T16:03:16.580Z,61.30
2019-04-07T16:05:46.471Z,62.70
2019-04-07T16:08:16.129Z,64.40
2019-04-07T16:10:45.317Z,64.10
2019-04-07T16:13:14.292Z,63.50
2019-04-07T16:15:45.239Z,65.40
2019-04-07T16:18:13.388Z,65.80
2019-04-07T16:20:43.151Z,64.90
2019-04-07T16:23:12.810Z,64.10
2019-04-07T16:25:42.610Z,63.60
2019-04-07T16:28:13.624Z,64.40
2019-04-07T16:30:41.802Z,63.90
2019-04-07T16:33:11.112Z,66.90
2019-04-07T16:35:39.944Z,69.30
2019-04-07T16:38:09.530Z,70.20
2019-04-07T16:40:40.438Z,70.50
2019-04-07T16:43:14.463Z,73.10
2019-04-07T16:45:43.910Z,74.40
2019-04-07T16:48:10.813Z,76.90
2019-04-07T16:50:39.861Z,77.40
2019-04-07T16:53:09.216Z,78.50
2019-04-07T16:55:41.605Z,79.70
2019-04-07T16:58:11.699Z,81.00
2019-04-07T17:00:43.527Z,82.30
2019-04-07T17:03:13.183Z,82.80
2019-04-07T17:05:43.062Z,83.30
2019-04-07T17:08:12.881Z,84.40
2019-04-07T17:10:41.840Z,85.30
2019-04-07T17:13:18.602Z,86.70
2019-04-07T17:15:42.884Z,88.60
2019-04-07T17:18:55.400Z,90.50
2019-04-07T17:21:22.832Z,91.50
2019-04-07T17:23:55.361Z,92.40
2019-04-07T17:26:23.812Z,92.70
2019-04-07T17:28:55.596Z,93.50
2019-04-07T17:31:23.992Z,94.40
2019-04-07T17:33:53.972Z,94.10
2019-04-07T17:36:23.927Z,94.10
2019-04-07T17:38:58.362Z,94.30
2019-04-07T17:41:28.721Z,93.50
2019-04-07T17:44:05.896Z,94.20
2019-04-07T17:46:55.828Z,94.90
2019-04-07T17:49:30.958Z,95.90
2019-04-07T17:52:22.133Z,96.00
2019-04-07T17:58:10.500Z,97.90
2019-04-07T18:00:56.485Z,98.50
2019-04-07T18:03:30.255Z,99.20
2019-04-07T18:06:03.851Z,99.70
2019-04-07T18:08:43.513Z,99.90
2019-04-07T18:11:25.175Z,99.90
2019-04-07T18:14:08.874Z,99.90
2019-04-07T18:16:46.159Z,99.90
2019-04-07T18:19:34.797Z,99.90
2019-04-07T18:22:24.528Z,99.90
2019-04-07T18:24:55.685Z,99.90
2019-04-07T18:27:30.720Z,99.90
2019-04-07T18:30:18.476Z,99.90
2019-04-07T18:33:01.597Z,99.90
2019-04-07T18:35:36.604Z,99.90
2019-04-07T18:38:11.428Z,99.90
2019-04-07T18:41:01.655Z,99.90
2019-04-07T18:43:50.738Z,99.90
2019-04-07T18:46:32.399Z,99.90
2019-04-07T18:49:04.856Z,99.90
2019-04-07T18:51:40.218Z,99.90
2019-04-07T18:54:26.916Z,99.90
2019-04-07T18:57:10.562Z,99.90
2019-04-07T18:59:42.117Z,99.90
2019-04-07T19:02:16.562Z,99.90
2019-04-07T19:05:03.848Z,99.90
2019-04-07T19:07:34.651Z,99.90
2019-04-07T19:10:16.468Z,99.90
2019-04-07T19:12:41.111Z,99.90
2019-04-07T19:15:28.191Z,99.90
2019-04-07T19:18:02.968Z,99.90
2019-04-07T19:20:37.229Z,99.90
2019-04-07T19:23:08.635Z,99.90
2019-04-07T19:25:57.762Z,99.90
2019-04-07T19:28:36.925Z,99.90
2019-04-07T19:31:17.486Z,99.90
2019-04-07T19:33:56.638Z,99.90
2019-04-07T19:36:36.884Z,99.90
2019-04-07T19:39:11.169Z,99.90
2019-04-07T19:41:41.877Z,99.90
2019-04-07T19:44:34.858Z,99.90
2019-04-07T19:46:59.674Z,99.90
2019-04-07T19:49:28.806Z,99.90
2019-04-07T19:52:02.333Z,99.90
2019-04-07T19:54:31.508Z,99.90
2019-04-07T19:57:14.126Z,99.90
2019-04-07T20:00:00.489Z,99.90
2019-04-07T20:02:35.786Z,99.90
2019-04-07T20:05:06.092Z,99.90
2019-04-07T20:07:52.523Z,99.90
2019-04-07T20:10:32.267Z,99.90
2019-04-07T20:13:11.325Z,99.90
2019-04-07T20:15:43.014Z,99.90
2019-04-07T20:18:16.602Z,99.90
2019-04-07T20:21:03.321Z,99.90
2019-04-07T20:23:52.234Z,99.90
2019-04-07T20:26:22.780Z,99.90
2019-04-07T20:29:10.730Z,99.90
2019-04-07T20:31:58.052Z,99.90
2019-04-07T20:34:33.998Z,99.90
2019-04-07T20:37:07.045Z,99.90
2019-04-07T20:39:41.192Z,99.90
2019-04-07T20:42:15.943Z,99.90
2019-04-07T20:45:02.730Z,99.90
2019-04-07T20:47:26.443Z,99.90
2019-04-07T20:50:02.886Z,99.90
2019-04-07T20:52:34.115Z,99.90
2019-04-07T20:55:06.851Z,99.90
2019-04-07T20:57:39.466Z,99.90
2019-04-07T21:00:26.754Z,99.90
2019-04-07T21:03:14.373Z,99.90
2019-04-07T21:05:46.272Z,99.90
2019-04-07T21:08:17.719Z,99.90
2019-04-07T21:10:49.640Z,99.90
2019-04-07T21:13:24.776Z,99.90
2019-04-07T21:15:55.649Z,99.90
2019-04-07T21:18:42.492Z,99.90
2019-04-07T21:21:25.621Z,99.90
2019-04-07T21:24:17.414Z,99.90
2019-04-07T21:26:46.610Z,99.90
2019-04-07T21:29:35.269Z,99.90
2019-04-07T21:32:12.237Z,99.90
2019-04-07T21:34:49.348Z,99.90
2019-04-07T21:37:23.044Z,99.90
2019-04-07T21:40:02.813Z,99.90
2019-04-07T21:45:47.361Z,99.90
2019-04-07T21:48:33.511Z,99.90
2019-04-07T21:51:04.441Z,99.90
2019-04-07T21:53:34.915Z,99.90
2019-04-07T21:56:20.246Z,99.90
2019-04-07T21:59:08.763Z,99.90
2019-04-07T22:01:39.904Z,99.90
2019-04-07T22:04:25.298Z,99.90
2019-04-07T22:07:00.217Z,99.90
2019-04-07T22:09:31.032Z,99.90
2019-04-07T22:12:00.571Z,99.90
2019-04-07T22:14:30.486Z,99.90
2019-04-07T22:17:02.449Z,99.90
2019-04-07T22:19:31.897Z,99.90
2019-04-07T22:22:02.445Z,99.90
2019-04-07T22:24:34.718Z,99.90
2019-04-07T22:27:05.321Z,99.90
2019-04-07T22:29:34.981Z,99.90
2019-04-07T22:32:05.327Z,99.90
2019-04-07T22:34:35.567Z,99.90
2019-04-07T22:37:05.015Z,99.90
2019-04-07T22:39:33.882Z,99.90
2019-04-07T22:42:02.629Z,99.90
2019-04-07T22:44:31.719Z,99.90
2019-04-07T22:47:00.911Z,99.90
2019-04-07T22:49:32.167Z,99.90
2019-04-07T22:52:01.274Z,99.90
2019-04-07T22:54:31.232Z,99.90
2019-04-07T22:57:00.696Z,99.90
2019-04-07T22:59:30.199Z,99.90
2019-04-07T23:01:59.871Z,99.90
2019-04-07T23:04:29.990Z,99.90
2019-04-07T23:06:59.234Z,99.90
2019-04-07T23:09:28.030Z,99.90
2019-04-07T23:11:56.803Z,99.90
2019-04-07T23:14:25.691Z,99.90
2019-04-07T23:16:54.446Z,99.90
2019-04-07T23:19:23.686Z,99.90
2019-04-07T23:21:53.368Z,99.90
2019-04-07T23:24:22.229Z,99.90
2019-04-07T23:26:51.073Z,99.90
2019-04-07T23:29:19.952Z,99.90
2019-04-07T23:31:48.639Z,99.90
2019-04-07T23:34:17.377Z,99.90
2019-04-07T23:36:46.099Z,99.90
2019-04-07T23:39:15.254Z,99.90
2019-04-07T23:41:44.210Z,99.90
2019-04-07T23:44:13.580Z,99.90
2019-04-07T23:46:42.334Z,99.90
2019-04-07T23:49:11.819Z,99.90
2019-04-07T23:51:41.406Z,99.90
2019-04-07T23:54:11.835Z,99.90
2019-04-07T23:56:42.203Z,99.90
2019-04-07T23:59:11.639Z,99.90
